Time;durP1;ratioP1;P1;durP2;ratioP2;P2;SDS_P1;SDS_P2;PMS_P1;PMS_P2;Temp;Humidity;BMP_temperature;BMP_pressure;BME280_temperature;BME280_humidity;BME280_pressure;Samples;Min_cycle;Max_cycle;Signal;HPM_P1;HPM_P2
2021/07/07 00:00:25;;;;;;;3.37;3.03;;;15.40;96.20;;;;;;5016813;28;20427;-89
2021/07/07 00:03:08;;;;;;;3.57;3.20;;;15.20;96.00;;;;;;5034790;28;20164;-91
2021/07/07 00:05:43;;;;;;;3.00;2.87;;;13.20;93.60;;;;;;5013973;28;20426;-92
2021/07/07 00:08:12;;;;;;;3.17;3.17;;;15.40;96.50;;;;;;5034746;28;20463;-91
2021/07/07 00:10:43;;;;;;;3.40;3.20;;;15.40;96.50;;;;;;5032114;28;20412;-90
2021/07/07 00:13:09;;;;;;;3.70;3.50;;;14.50;94.80;;;;;;5000533;28;20431;-88
2021/07/07 00:15:37;;;;;;;5.40;3.90;;;15.10;96.30;;;;;;5015908;28;20435;-89
2021/07/07 00:18:13;;;;;;;4.03;3.30;;;18.30;97.10;;;;;;4998743;28;20433;-89
2021/07/07 00:20:54;;;;;;;3.70;3.40;;;15.30;95.20;;;;;;5013104;28;20557;-89
2021/07/07 00:23:29;;;;;;;3.77;3.57;;;15.20;97.00;;;;;;5014326;28;20427;-89
2021/07/07 00:25:57;;;;;;;4.30;3.00;;;16.70;96.50;;;;;;4998440;28;20495;-90
2021/07/07 00:28:28;;;;;;;3.47;3.27;;;15.20;96.70;;;;;;4998479;28;20479;-90
2021/07/07 00:31:01;;;;;;;3.37;3.27;;;15.00;96.70;;;;;;5014374;28;20419;-91
2021/07/07 00:33:31;;;;;;;4.50;4.10;;;15.10;96.70;;;;;;5000680;28;20430;-91
2021/07/07 00:35:59;;;;;;;5.53;3.93;;;15.00;96.70;;;;;;5012325;28;20478;-90
2021/07/07 00:38:28;;;;;;;4.33;3.70;;;15.00;96.80;;;;;;4996865;28;20479;-90
2021/07/07 00:40:58;;;;;;;3.27;3.10;;;14.40;95.10;;;;;;5015965;28;20488;-91
2021/07/07 00:43:25;;;;;;;4.00;3.60;;;16.30;96.40;;;;;;5000081;28;20956;-91
2021/07/07 00:45:55;;;;;;;3.83;3.53;;;16.20;95.90;;;;;;5014383;28;20427;-91
2021/07/07 00:48:24;;;;;;;3.30;3.10;;;16.30;96.30;;;;;;5033524;28;20490;-91
2021/07/07 00:50:51;;;;;;;5.60;3.40;;;14.20;96.00;;;;;;5016354;28;20419;-90
2021/07/07 00:53:18;;;;;;;3.93;3.60;;;15.00;96.50;;;;;;5000098;28;20424;-89
2021/07/07 00:55:53;;;;;;;3.97;3.60;;;13.10;96.00;;;;;;5015580;28;20477;-90
2021/07/07 00:58:27;;;;;;;28.33;3.97;;;14.90;97.10;;;;;;5017851;28;20422;-89
2021/07/07 01:00:53;;;;;;;3.73;3.17;;;14.90;97.30;;;;;;5019752;28;20419;-90
2021/07/07 01:03:23;;;;;;;6.20;3.70;;;14.80;97.00;;;;;;5020119;28;20446;-90
2021/07/07 01:05:54;;;;;;;3.57;3.47;;;14.90;95.40;;;;;;5035928;28;20188;-91
2021/07/07 01:08:24;;;;;;;3.87;3.50;;;15.00;95.50;;;;;;5019749;28;20478;-89
2021/07/07 01:10:54;;;;;;;4.00;3.80;;;15.00;95.40;;;;;;5019990;28;20396;-88
2021/07/07 01:13:21;;;;;;;5.60;3.43;;;16.30;96.50;;;;;;5023913;28;20436;-88
2021/07/07 01:15:57;;;;;;;3.30;3.10;;;15.00;96.90;;;;;;5023488;28;20431;-89
2021/07/07 01:18:24;;;;;;;3.77;3.67;;;16.70;96.50;;;;;;5023287;28;20429;-90
2021/07/07 01:20:51;;;;;;;5.03;3.57;;;15.00;96.70;;;;;;5019776;28;20434;-89
2021/07/07 01:23:19;;;;;;;3.80;3.40;;;14.80;95.20;;;;;;5038049;28;20439;-90
2021/07/07 01:25:51;;;;;;;6.40;3.53;;;14.90;97.10;;;;;;5020373;28;20419;-91
2021/07/07 01:28:21;;;;;;;3.43;3.30;;;14.90;97.20;;;;;;5019940;28;20467;-90
2021/07/07 01:30:48;;;;;;;4.30;3.40;;;13.10;94.60;;;;;;5021507;28;20415;-90
2021/07/07 01:33:19;;;;;;;3.33;3.13;;;15.00;97.80;;;;;;5005736;28;20451;-90
2021/07/07 01:35:50;;;;;;;3.67;3.47;;;15.00;95.90;;;;;;5039760;28;20415;-90
2021/07/07 01:38:16;;;;;;;4.00;3.17;;;14.40;95.00;;;;;;5022755;28;20459;-90
2021/07/07 01:40:43;;;;;;;3.30;3.10;;;15.10;97.00;;;;;;5022089;28;20423;-90
2021/07/07 01:43:09;;;;;;;3.90;3.13;;;17.40;97.60;;;;;;5021241;28;20180;-91
2021/07/07 01:45:35;;;;;;;5.27;3.60;;;15.10;96.50;;;;;;5017650;28;20424;-89
2021/07/07 01:48:07;;;;;;;2.63;2.63;;;15.60;97.10;;;;;;5014666;28;20533;-89
2021/07/07 01:50:34;;;;;;;3.63;3.43;;;15.00;96.80;;;;;;5038818;28;20431;-88
2021/07/07 01:53:03;;;;;;;5.80;3.53;;;14.90;95.20;;;;;;5039174;28;20431;-88
2021/07/07 01:55:29;;;;;;;3.80;3.50;;;14.80;97.30;;;;;;5019004;28;20447;-90
2021/07/07 01:57:58;;;;;;;3.20;3.00;;;14.70;97.90;;;;;;5015585;28;20176;-89
2021/07/07 02:00:38;;;;;;;4.93;3.53;;;14.70;98.10;;;;;;5016112;28;20451;-90
2021/07/07 02:03:05;;;;;;;3.80;3.50;;;14.70;98.40;;;;;;5038943;28;20453;-89
2021/07/07 02:05:36;;;;;;;4.20;4.00;;;14.70;98.10;;;;;;5022726;28;20439;-88
2021/07/07 02:08:12;;;;;;;7.17;3.93;;;14.70;98.40;;;;;;5021045;28;20502;-89
2021/07/07 02:10:44;;;;;;;3.90;3.53;;;14.70;98.30;;;;;;5021660;28;20416;-88
2021/07/07 02:13:14;;;;;;;4.27;3.80;;;14.70;98.50;;;;;;5021216;28;20535;-89
2021/07/07 02:15:43;;;;;;;3.73;3.57;;;14.70;98.70;;;;;;5036284;28;20458;-90
2021/07/07 02:18:12;;;;;;;4.00;3.90;;;14.70;98.20;;;;;;5016552;28;20418;-90
2021/07/07 02:20:43;;;;;;;4.63;4.30;;;14.70;98.30;;;;;;5033922;28;20507;-90
2021/07/07 02:23:15;;;;;;;4.10;3.80;;;13.60;96.20;;;;;;5033197;28;20922;-90
2021/07/07 02:25:45;;;;;;;4.50;3.83;;;14.70;98.40;;;;;;5015740;28;20423;-89
2021/07/07 02:28:15;;;;;;;4.73;4.60;;;16.10;99.50;;;;;;5033612;28;20479;-90
2021/07/07 02:30:42;;;;;;;4.27;4.00;;;14.60;98.60;;;;;;5016311;28;20430;-91
2021/07/07 02:33:26;;;;;;;4.87;4.57;;;14.50;99.20;;;;;;5016083;28;20431;-91
2021/07/07 02:35:57;;;;;;;3.47;3.27;;;11.80;96.20;;;;;;5016779;28;20439;-90
2021/07/07 02:38:32;;;;;;;4.20;3.90;;;16.80;99.90;;;;;;5017510;28;20925;-90
2021/07/07 02:40:58;;;;;;;4.13;3.80;;;14.40;99.20;;;;;;5012770;28;20427;-89
2021/07/07 02:43:24;;;;;;;4.07;3.60;;;14.50;99.20;;;;;;5015205;28;20427;-92
2021/07/07 02:45:52;;;;;;;4.03;3.90;;;14.50;99.50;;;;;;5034566;28;20739;-90
2021/07/07 02:48:34;;;;;;;4.27;4.00;;;14.50;99.20;;;;;;4999592;28;20467;-90
2021/07/07 02:51:08;;;;;;;4.10;3.80;;;14.50;99.30;;;;;;5014799;28;20408;-89
2021/07/07 02:53:40;;;;;;;7.93;4.40;;;14.40;99.00;;;;;;5032347;28;20570;-91
2021/07/07 02:56:09;;;;;;;5.50;4.70;;;14.50;99.00;;;;;;5015827;28;20435;-89
2021/07/07 02:58:50;;;;;;;3.97;3.70;;;17.40;99.60;;;;;;5000471;28;20431;-90
2021/07/07 03:01:21;;;;;;;4.47;4.20;;;15.80;98.00;;;;;;5017566;28;20412;-91
2021/07/07 03:03:53;;;;;;;7.73;3.83;;;14.00;96.70;;;;;;5034231;28;20430;-91
2021/07/07 03:06:22;;;;;;;8.70;4.30;;;13.70;96.10;;;;;;5001573;28;20935;-91
2021/07/07 03:08:48;;;;;;;3.90;3.70;;;13.30;95.60;;;;;;5015282;28;20432;-90
2021/07/07 03:11:16;;;;;;;10.43;4.00;;;13.90;97.00;;;;;;4999171;28;20447;-90
2021/07/07 03:13:43;;;;;;;4.40;4.10;;;14.70;96.30;;;;;;5014920;28;20180;-91
2021/07/07 03:16:09;;;;;;;8.00;4.20;;;14.70;95.90;;;;;;5014966;28;20431;-90
2021/07/07 03:18:36;;;;;;;7.23;3.90;;;14.60;97.10;;;;;;5015300;28;20419;-91
2021/07/07 03:21:03;;;;;;;4.90;3.80;;;15.50;96.50;;;;;;4998561;28;20180;-90
2021/07/07 03:23:30;;;;;;;6.17;4.10;;;14.90;95.80;;;;;;5015635;28;20462;-91
2021/07/07 03:25:56;;;;;;;6.50;3.60;;;15.50;95.90;;;;;;5014574;28;20423;-89
2021/07/07 03:28:28;;;;;;;3.80;3.47;;;14.90;95.70;;;;;;5012851;28;20479;-91
2021/07/07 03:30:54;;;;;;;7.13;3.40;;;15.00;95.90;;;;;;4999134;28;20427;-90
2021/07/07 03:33:26;;;;;;;4.10;3.90;;;14.90;95.70;;;;;;5015251;28;20423;-90
2021/07/07 03:35:59;;;;;;;6.80;3.63;;;15.10;93.80;;;;;;4999100;28;20427;-88
2021/07/07 03:38:25;;;;;;;5.63;3.67;;;15.10;94.80;;;;;;5012510;28;20487;-89
2021/07/07 03:40:51;;;;;;;3.80;3.40;;;15.10;94.50;;;;;;5031552;28;20399;-91
2021/07/07 03:43:17;;;;;;;6.13;4.53;;;15.10;94.50;;;;;;4997917;28;20423;-90
2021/07/07 03:45:46;;;;;;;5.73;3.70;;;15.20;94.30;;;;;;5000289;28;20415;-91
2021/07/07 03:48:13;;;;;;;8.23;5.27;;;15.30;94.60;;;;;;5031834;28;20479;-90
2021/07/07 03:50:45;;;;;;;3.93;3.57;;;13.70;92.60;;;;;;5014022;28;20418;-91
2021/07/07 03:53:12;;;;;;;4.03;3.60;;;15.30;94.70;;;;;;4999697;28;20455;-91
2021/07/07 03:55:40;;;;;;;3.43;3.20;;;15.50;93.80;;;;;;5034056;28;20422;-90
2021/07/07 03:58:08;;;;;;;3.93;3.60;;;15.20;95.10;;;;;;5013186;28;20427;-91
2021/07/07 04:00:34;;;;;;;4.07;3.77;;;18.60;96.00;;;;;;5014087;28;20423;-91
2021/07/07 04:03:02;;;;;;;4.87;3.60;;;15.20;94.60;;;;;;5014336;28;20426;-91
2021/07/07 04:05:30;;;;;;;3.67;3.57;;;15.40;94.40;;;;;;4998663;28;20427;-91
2021/07/07 04:08:18;;;;;;;5.03;3.83;;;15.30;92.90;;;;;;5014940;28;20493;-91
2021/07/07 04:10:46;;;;;;;3.43;3.20;;;16.60;93.40;;;;;;5013533;28;20915;-91
2021/07/07 04:13:14;;;;;;;3.80;3.27;;;15.90;91.90;;;;;;5032249;28;20447;-90
2021/07/07 04:15:41;;;;;;;3.63;3.53;;;15.60;91.70;;;;;;5013756;28;20507;-91
2021/07/07 04:18:09;;;;;;;8.17;3.90;;;16.30;91.80;;;;;;5030281;28;20424;-91
2021/07/07 04:20:36;;;;;;;6.87;3.83;;;15.70;92.60;;;;;;5011113;28;20428;-91
2021/07/07 04:23:02;;;;;;;3.50;3.30;;;15.80;93.50;;;;;;4997292;28;20416;-89
2021/07/07 04:25:29;;;;;;;4.50;3.83;;;15.70;92.70;;;;;;5013377;28;20479;-90
2021/07/07 04:27:54;;;;;;;3.97;3.67;;;15.90;90.00;;;;;;5019472;28;20263;-88
2021/07/07 04:30:20;;;;;;;3.37;3.17;;;16.00;91.40;;;;;;5020805;28;20411;-90
2021/07/07 04:32:49;;;;;;;8.13;2.93;;;16.00;92.40;;;;;;5016436;28;20648;-89
2021/07/07 04:35:17;;;;;;;3.80;3.20;;;18.00;91.20;;;;;;5031629;28;20466;-89
2021/07/07 04:37:46;;;;;;;10.57;4.50;;;15.90;90.70;;;;;;5012611;28;21010;-90
2021/07/07 04:40:17;;;;;;;7.93;3.50;;;16.60;89.20;;;;;;4994482;28;20436;-90
2021/07/07 04:42:43;;;;;;;5.80;3.10;;;20.20;91.30;;;;;;4979035;28;20408;-90
2021/07/07 04:45:14;;;;;;;3.10;2.90;;;16.80;87.30;;;;;;4994560;28;20487;-90
2021/07/07 04:47:42;;;;;;;4.33;3.00;;;17.10;85.60;;;;;;5010573;28;20201;-91
2021/07/07 04:50:14;;;;;;;2.60;2.40;;;17.30;83.00;;;;;;5004152;28;20453;-88
2021/07/07 04:52:42;;;;;;;3.57;2.83;;;17.60;79.70;;;;;;5018812;28;20478;-91
2021/07/07 04:55:12;;;;;;;7.23;2.70;;;17.80;78.10;;;;;;5013876;28;20416;-89
2021/07/07 04:57:41;;;;;;;3.23;2.57;;;18.00;73.00;;;;;;4997403;28;20500;-90
2021/07/07 05:00:15;;;;;;;4.83;3.70;;;18.40;66.50;;;;;;5013573;28;20426;-92
2021/07/07 05:02:43;;;;;;;4.30;3.03;;;21.40;70.50;;;;;;5013089;28;20545;-91
2021/07/07 05:05:15;;;;;;;2.67;2.53;;;21.60;69.70;;;;;;5008154;28;20404;-88
2021/07/07 05:07:41;;;;;;;3.73;2.67;;;19.70;68.30;;;;;;5006664;28;20477;-90
2021/07/07 05:10:08;;;;;;;4.80;3.30;;;18.80;66.20;;;;;;5004351;28;20404;-91
2021/07/07 05:12:34;;;;;;;4.40;2.47;;;18.80;63.20;;;;;;5010471;28;20416;-89
2021/07/07 05:15:09;;;;;;;4.60;2.70;;;18.90;63.20;;;;;;4993268;28;20420;-90
2021/07/07 05:17:35;;;;;;;3.20;3.10;;;19.60;63.30;;;;;;5006898;28;20435;-90
2021/07/07 05:20:02;;;;;;;3.10;2.87;;;20.50;66.50;;;;;;5008560;28;20410;-89
2021/07/07 05:22:28;;;;;;;3.13;2.70;;;18.80;63.20;;;;;;4989104;28;20931;-90
2021/07/07 05:24:54;;;;;;;3.13;2.73;;;19.00;63.30;;;;;;4986913;28;20420;-90
2021/07/07 05:27:20;;;;;;;3.50;2.93;;;19.10;61.50;;;;;;5003128;28;20456;-90
2021/07/07 05:29:46;;;;;;;7.17;2.67;;;19.30;61.40;;;;;;5004227;28;20412;-90
2021/07/07 05:32:12;;;;;;;5.33;3.60;;;19.40;60.90;;;;;;4971891;28;20437;-90
2021/07/07 05:34:41;;;;;;;2.80;2.63;;;19.40;62.60;;;;;;5004474;28;20185;-90
2021/07/07 05:37:10;;;;;;;9.13;2.77;;;19.30;60.50;;;;;;5007215;28;20491;-91
2021/07/07 05:39:38;;;;;;;2.60;2.40;;;19.30;61.50;;;;;;5008506;28;20443;-88
2021/07/07 05:42:06;;;;;;;3.00;2.80;;;;;;;;;;5009882;28;20423;-91
2021/07/07 05:44:32;;;;;;;5.40;2.47;;;;;;;;;;5007399;28;20424;-89
2021/07/07 05:46:58;;;;;;;2.30;2.10;;;20.70;66.90;;;;;;5011198;28;20475;-90
2021/07/07 05:49:25;;;;;;;5.03;2.30;;;21.10;67.70;;;;;;5007916;28;20415;-91
2021/07/07 05:51:51;;;;;;;2.93;2.10;;;21.80;54.90;;;;;;5026127;28;20574;-89
2021/07/07 05:54:17;;;;;;;2.93;2.53;;;22.10;55.20;;;;;;5013845;28;20412;-90
2021/07/07 05:56:42;;;;;;;2.80;2.27;;;22.20;56.70;;;;;;5012225;28;20169;-89
2021/07/07 05:59:09;;;;;;;2.50;2.30;;;22.50;57.60;;;;;;4651511;28;9999938;-88
2021/07/07 06:02:10;;;;;;;5.80;3.00;;;22.50;57.60;;;;;;5041230;28;20175;-90
2021/07/07 06:04:42;;;;;;;4.87;2.20;;;23.40;58.30;;;;;;5029462;28;20426;-91
2021/07/07 06:07:09;;;;;;;3.47;2.67;;;;;;;;;;5031536;28;20526;-90
2021/07/07 06:09:34;;;;;;;2.87;2.10;;;23.10;56.90;;;;;;5013347;28;20416;-88
2021/07/07 06:12:03;;;;;;;2.13;2.00;;;23.60;52.70;;;;;;5011106;28;20451;-90
2021/07/07 06:14:34;;;;;;;3.53;2.47;;;23.90;52.30;;;;;;5011704;28;20195;-91
2021/07/07 06:17:01;;;;;;;2.13;1.80;;;24.40;49.80;;;;;;5015047;28;20411;-90
2021/07/07 06:19:29;;;;;;;3.27;3.07;;;24.20;49.40;;;;;;4997285;28;20420;-91
2021/07/07 06:22:06;;;;;;;3.03;2.77;;;24.30;50.30;;;;;;4994890;28;20425;-89
2021/07/07 06:24:32;;;;;;;5.10;3.10;;;24.30;49.40;;;;;;5010288;28;20452;-90
2021/07/07 06:26:59;;;;;;;2.90;2.70;;;23.40;50.60;;;;;;4992565;28;20515;-93
2021/07/07 06:29:24;;;;;;;2.73;2.60;;;23.20;50.00;;;;;;4993111;28;20177;-90
2021/07/07 06:31:51;;;;;;;3.40;2.37;;;22.80;53.50;;;;;;5007706;28;20494;-92
2021/07/07 06:34:17;;;;;;;5.30;2.60;;;23.30;53.20;;;;;;4991954;28;20187;-91
2021/07/07 06:36:44;;;;;;;4.83;2.23;;;24.80;53.70;;;;;;4994916;28;20421;-90
2021/07/07 06:39:10;;;;;;;2.60;2.33;;;22.10;54.50;;;;;;4993646;28;20236;-92
2021/07/07 06:41:37;;;;;;;2.70;2.53;;;20.10;52.80;;;;;;5008721;28;20463;-91
2021/07/07 06:44:11;;;;;;;3.10;2.67;;;23.90;57.50;;;;;;5009147;28;20547;-92
2021/07/07 06:46:42;;;;;;;3.30;3.10;;;22.00;56.40;;;;;;4992419;28;20456;-90
2021/07/07 06:49:09;;;;;;;3.00;2.80;;;21.40;55.70;;;;;;4991572;28;20441;-89
2021/07/07 06:51:42;;;;;;;4.70;2.67;;;19.10;55.70;;;;;;4994419;28;20416;-91
2021/07/07 06:54:10;;;;;;;3.90;3.10;;;20.90;57.40;;;;;;5011804;28;20413;-91
2021/07/07 06:56:40;;;;;;;4.23;2.87;;;24.60;58.10;;;;;;4992860;28;20415;-89
2021/07/07 06:59:13;;;;;;;4.07;2.80;;;21.90;55.60;;;;;;5005614;28;20424;-90
2021/07/07 07:01:43;;;;;;;3.47;2.93;;;21.90;57.00;;;;;;5010611;28;20438;-90
2021/07/07 07:04:24;;;;;;;3.70;2.57;;;23.30;56.50;;;;;;5010632;28;20416;-91
2021/07/07 07:06:57;;;;;;;3.30;2.73;;;21.20;54.30;;;;;;5010876;28;20452;-91
2021/07/07 07:09:27;;;;;;;3.63;2.70;;;21.70;54.90;;;;;;5018092;28;20928;-90
2021/07/07 07:11:53;;;;;;;2.80;2.60;;;21.80;56.20;;;;;;5031263;28;20406;-91
2021/07/07 07:14:20;;;;;;;2.70;2.60;;;23.30;55.50;;;;;;5015601;28;20423;-91
2021/07/07 07:16:46;;;;;;;5.13;3.30;;;24.70;55.00;;;;;;5030964;28;20504;-90
2021/07/07 07:19:15;;;;;;;2.33;2.20;;;24.70;55.40;;;;;;5028582;28;20415;-91
2021/07/07 07:21:43;;;;;;;2.40;2.30;;;24.20;50.40;;;;;;5030024;28;20191;-90
2021/07/07 07:24:10;;;;;;;2.50;2.30;;;26.10;50.60;;;;;;5028615;28;20425;-90
2021/07/07 07:26:37;;;;;;;2.10;2.00;;;25.40;48.60;;;;;;5045974;28;20449;-90
2021/07/07 07:29:04;;;;;;;2.23;2.13;;;25.50;47.70;;;;;;5030404;28;20434;-91
2021/07/07 07:31:30;;;;;;;3.80;2.27;;;26.00;47.40;;;;;;5030116;28;20479;-85
2021/07/07 07:33:55;;;;;;;6.03;2.03;;;28.50;46.20;;;;;;5041758;28;20494;-90
2021/07/07 07:36:22;;;;;;;2.60;2.40;;;26.80;45.60;;;;;;5026430;28;20176;-92
2021/07/07 07:38:58;;;;;;;2.20;2.03;;;28.60;45.30;;;;;;5029841;28;20223;-88
2021/07/07 07:41:30;;;;;;;2.50;2.40;;;28.00;44.90;;;;;;5016574;28;20418;-92
2021/07/07 07:43:56;;;;;;;2.60;2.40;;;27.20;43.80;;;;;;5026501;28;20925;-90
2021/07/07 07:46:33;;;;;;;4.00;2.30;;;27.70;44.70;;;;;;5002495;28;20420;-91
2021/07/07 07:49:00;;;;;;;1.80;1.70;;;27.70;43.40;;;;;;5002511;28;20566;-90
2021/07/07 07:51:26;;;;;;;2.70;2.23;;;28.10;43.80;;;;;;5020667;28;20503;-90
2021/07/07 07:53:52;;;;;;;3.03;2.80;;;29.60;44.10;;;;;;5021521;28;20922;-91
2021/07/07 07:56:25;;;;;;;2.47;2.30;;;29.60;44.30;;;;;;5008338;28;20419;-91
2021/07/07 07:58:57;;;;;;;2.70;2.50;;;27.10;43.70;;;;;;5022310;28;20169;-90
2021/07/07 08:01:38;;;;;;;3.90;2.20;;;27.60;42.90;;;;;;5025058;28;20427;-92
2021/07/07 08:04:04;;;;;;;2.60;2.33;;;28.00;43.10;;;;;;4995803;28;20417;-92
2021/07/07 08:06:31;;;;;;;2.53;2.43;;;28.30;44.10;;;;;;5009756;28;20408;-89
2021/07/07 08:08:58;;;;;;;2.60;2.00;;;28.40;44.00;;;;;;5008427;28;20427;-90
2021/07/07 08:11:27;;;;;;;2.70;2.40;;;26.80;40.30;;;;;;5025782;28;20411;-88
2021/07/07 08:13:53;;;;;;;2.60;2.40;;;28.60;42.00;;;;;;4994734;28;20432;-89
2021/07/07 08:16:21;;;;;;;2.70;2.60;;;29.20;42.30;;;;;;5013992;28;20422;-92
2021/07/07 08:18:46;;;;;;;2.40;2.30;;;29.30;40.70;;;;;;5010026;28;20176;-92
2021/07/07 08:21:17;;;;;;;2.67;2.53;;;29.20;41.60;;;;;;5009012;28;20599;-92
2021/07/07 08:23:52;;;;;;;3.63;2.60;;;29.40;40.30;;;;;;5030268;28;20404;-92
2021/07/07 08:26:18;;;;;;;1.77;1.67;;;29.20;41.80;;;;;;5009367;28;20430;-91
2021/07/07 08:28:44;;;;;;;2.47;2.30;;;29.40;41.30;;;;;;5009160;28;20463;-90
2021/07/07 08:31:10;;;;;;;2.50;2.40;;;29.30;40.10;;;;;;5009670;28;20423;-92
2021/07/07 08:33:35;;;;;;;2.57;2.43;;;31.20;41.30;;;;;;5024326;28;20173;-91
2021/07/07 08:36:02;;;;;;;2.47;2.27;;;30.20;39.60;;;;;;5023077;28;20490;-89
2021/07/07 08:38:29;;;;;;;2.63;2.23;;;30.70;39.40;;;;;;5006472;28;20563;-90
2021/07/07 08:40:57;;;;;;;2.93;2.20;;;30.90;40.70;;;;;;5003060;28;20199;-91
2021/07/07 08:43:24;;;;;;;2.10;2.00;;;29.50;40.30;;;;;;4657165;28;10000102;-92
2021/07/07 08:45:53;;;;;;;6.17;2.90;;;30.10;41.80;;;;;;5023368;28;20173;-92
2021/07/07 08:48:21;;;;;;;2.40;2.30;;;31.40;40.00;;;;;;5006333;28;20482;-91
2021/07/07 08:50:46;;;;;;;2.50;2.30;;;30.70;38.00;;;;;;5005744;28;20430;-88
2021/07/07 08:53:15;;;;;;;4.83;2.60;;;31.50;41.00;;;;;;5006950;28;20453;-91
2021/07/07 08:55:42;;;;;;;8.53;2.47;;;30.80;38.60;;;;;;5005314;28;20276;-89
2021/07/07 08:58:08;;;;;;;3.03;2.27;;;29.90;39.80;;;;;;4987798;28;20437;-91
2021/07/07 09:00:37;;;;;;;1.90;1.80;;;30.40;38.80;;;;;;5025751;28;20418;-90
2021/07/07 09:03:10;;;;;;;6.23;2.13;;;31.00;37.00;;;;;;5009696;28;20179;-91
2021/07/07 09:06:02;;;;;;;5.40;2.50;;;29.90;37.10;;;;;;5010947;28;20430;-89
2021/07/07 09:08:36;;;;;;;2.33;2.10;;;31.10;36.80;;;;;;5026813;28;20530;-89
2021/07/07 09:11:22;;;;;;;2.40;2.27;;;31.10;36.90;;;;;;5009643;28;20466;-90
2021/07/07 09:14:14;;;;;;;1.73;1.73;;;31.00;36.00;;;;;;5023439;28;20487;-89
2021/07/07 09:17:01;;;;;;;1.73;1.70;;;31.50;37.70;;;;;;4993662;28;20420;-91
2021/07/07 09:19:31;;;;;;;2.40;2.10;;;31.30;37.20;;;;;;5001223;28;20409;-83
2021/07/07 09:22:15;;;;;;;3.37;2.30;;;32.70;36.50;;;;;;5000810;28;20416;-89
2021/07/07 09:24:46;;;;;;;1.90;1.80;;;31.60;36.20;;;;;;4988658;28;20420;-90
2021/07/07 09:27:16;;;;;;;2.53;2.37;;;32.10;36.10;;;;;;5006223;28;20448;-91
2021/07/07 09:29:54;;;;;;;2.33;2.23;;;32.30;35.80;;;;;;5007857;28;20483;-89
2021/07/07 09:32:28;;;;;;;2.77;2.40;;;32.40;35.10;;;;;;5006937;28;20416;-90
2021/07/07 09:35:04;;;;;;;2.30;2.10;;;31.60;34.60;;;;;;4993111;28;20481;-89
2021/07/07 09:37:36;;;;;;;2.27;2.17;;;31.50;34.80;;;;;;4991470;28;20422;-90
2021/07/07 09:40:02;;;;;;;2.00;1.90;;;31.30;35.40;;;;;;5008687;28;20523;-90
2021/07/07 09:42:37;;;;;;;2.87;2.70;;;30.90;36.00;;;;;;5007728;28;20416;-89
2021/07/07 09:45:24;;;;;;;2.20;2.10;;;31.20;38.00;;;;;;5006616;28;20432;-89
2021/07/07 09:47:53;;;;;;;4.50;2.73;;;29.00;40.00;;;;;;4989100;28;20472;-91
2021/07/07 09:50:18;;;;;;;5.90;2.70;;;30.80;40.30;;;;;;5006363;28;20416;-92
2021/07/07 09:52:45;;;;;;;2.90;2.80;;;27.40;42.00;;;;;;4660530;28;9999796;-92
2021/07/07 09:55:13;;;;;;;3.10;2.37;;;26.40;40.70;;;;;;5002160;28;20189;-91
2021/07/07 09:57:46;;;;;;;3.60;2.67;;;26.00;41.30;;;;;;4985668;28;21310;-87
2021/07/07 10:00:23;;;;;;;3.13;3.03;;;26.00;42.20;;;;;;5003330;28;20432;-92
2021/07/07 10:02:52;;;;;;;3.27;2.90;;;26.00;43.80;;;;;;5006752;28;20421;-91
2021/07/07 10:05:19;;;;;;;3.03;2.40;;;25.20;44.80;;;;;;4986460;28;20429;-90
2021/07/07 10:07:45;;;;;;;3.70;3.27;;;24.50;45.00;;;;;;4981986;28;20472;-89
2021/07/07 10:10:19;;;;;;;3.73;3.30;;;26.50;47.30;;;;;;4999231;28;20409;-87
2021/07/07 10:12:46;;;;;;;2.90;2.77;;;26.00;48.20;;;;;;4980696;28;20432;-90
2021/07/07 10:15:13;;;;;;;7.70;3.60;;;25.50;47.20;;;;;;5005613;28;20417;-88
2021/07/07 10:17:41;;;;;;;7.87;3.60;;;24.00;48.80;;;;;;5018312;28;20424;-88
2021/07/07 10:20:10;;;;;;;3.67;2.77;;;25.50;50.90;;;;;;5021911;28;20442;-89
2021/07/07 10:22:37;;;;;;;3.10;2.87;;;24.00;49.20;;;;;;5005671;28;20419;-89
2021/07/07 10:25:06;;;;;;;3.73;3.20;;;24.60;49.20;;;;;;5006689;28;20495;-90
2021/07/07 10:27:33;;;;;;;4.00;3.70;;;24.10;49.30;;;;;;5025676;28;20459;-93
2021/07/07 10:29:59;;;;;;;3.47;3.00;;;24.80;48.60;;;;;;5026563;28;20408;-90
2021/07/07 10:32:29;;;;;;;10.53;3.27;;;27.20;51.40;;;;;;5008247;28;20470;-90
2021/07/07 10:34:54;;;;;;;2.50;2.40;;;25.30;50.40;;;;;;5026850;28;20676;-88
2021/07/07 10:37:24;;;;;;;3.50;3.30;;;23.70;49.10;;;;;;5008324;28;20419;-90
2021/07/07 10:39:50;;;;;;;3.20;2.80;;;24.60;49.60;;;;;;5025536;28;20248;-93
2021/07/07 10:42:16;;;;;;;2.60;2.60;;;25.00;50.40;;;;;;5006911;28;20418;-89
2021/07/07 10:44:50;;;;;;;2.77;2.47;;;26.70;49.40;;;;;;5009599;28;20181;-91
2021/07/07 10:47:34;;;;;;;2.87;2.73;;;27.10;44.50;;;;;;5026147;28;20559;-94
2021/07/07 10:50:02;;;;;;;4.70;2.40;;;28.50;44.40;;;;;;5009095;28;20404;-94
2021/07/07 10:52:45;;;;;;;2.83;2.63;;;30.50;38.30;;;;;;5007133;28;20427;-95
2021/07/07 10:55:16;;;;;;;2.70;2.60;;;33.80;42.30;;;;;;5010656;28;20539;-92
2021/07/07 10:57:50;;;;;;;2.87;2.43;;;32.90;38.80;;;;;;4663503;28;9999802;-95
2021/07/07 11:00:30;;;;;;;2.57;2.47;;;32.60;34.40;;;;;;4988747;28;20353;-93
2021/07/07 11:06:30;;;;;;;2.43;1.80;;;33.20;38.60;;;;;;5008997;28;20428;-94
2021/07/07 11:09:30;;;;;;;4.03;2.00;;;27.90;35.50;;;;;;4992738;28;20437;-91
2021/07/07 11:11:56;;;;;;;4.20;2.40;;;31.90;40.60;;;;;;4990815;28;20436;-95
2021/07/07 11:14:27;;;;;;;2.50;2.30;;;28.00;38.50;;;;;;5070080;23;20500;-90
2021/07/07 11:17:03;;;;;;;3.33;3.10;;;27.90;38.30;;;;;;4997034;28;20204;-90
2021/07/07 11:19:47;;;;;;;2.70;2.50;;;29.10;39.70;;;;;;4993869;28;20428;-90
2021/07/07 11:22:27;;;;;;;6.10;3.30;;;29.30;40.70;;;;;;4972952;28;20528;-93
2021/07/07 11:25:03;;;;;;;3.20;2.90;;;30.30;40.30;;;;;;5009514;28;20458;-94
2021/07/07 11:27:47;;;;;;;2.73;2.63;;;29.40;40.40;;;;;;4994499;28;20519;-91
2021/07/07 11:30:49;;;;;;;2.40;2.30;;;27.70;36.70;;;;;;5029834;28;20435;-94
2021/07/07 11:33:15;;;;;;;1.90;1.80;;;30.10;37.70;;;;;;5010901;28;20552;-93
2021/07/07 11:35:42;;;;;;;2.17;2.07;;;29.70;38.00;;;;;;5028177;28;20404;-90
2021/07/07 11:38:09;;;;;;;7.33;2.50;;;;;;;;;;5016498;28;20388;-92
2021/07/07 11:40:37;;;;;;;2.00;1.90;;;31.70;34.60;;;;;;5018766;28;20563;-92
2021/07/07 11:43:11;;;;;;;4.37;2.77;;;31.80;33.90;;;;;;5032079;28;20411;-93
2021/07/07 11:45:38;;;;;;;2.00;1.90;;;32.30;33.80;;;;;;5003587;28;20430;-92
2021/07/07 11:48:22;;;;;;;2.10;2.00;;;32.50;33.10;;;;;;5006183;28;20524;-93
2021/07/07 11:50:53;;;;;;;1.80;1.63;;;33.90;33.60;;;;;;5007593;28;20423;-93
2021/07/07 11:53:19;;;;;;;1.93;1.80;;;32.20;32.20;;;;;;5018593;28;20411;-92
2021/07/07 11:56:06;;;;;;;3.90;2.23;;;32.50;34.30;;;;;;5004410;28;20411;-92
2021/07/07 11:58:42;;;;;;;3.23;3.00;;;30.20;33.70;;;;;;5023092;28;20407;-92
2021/07/07 12:01:15;;;;;;;3.37;2.47;;;30.30;33.60;;;;;;5003545;28;20519;-91
2021/07/07 12:03:41;;;;;;;1.57;1.50;;;30.90;34.80;;;;;;5020578;28;20471;-92
2021/07/07 12:06:13;;;;;;;2.10;2.00;;;30.90;35.60;;;;;;5004012;28;20438;-91
2021/07/07 12:08:41;;;;;;;5.70;2.53;;;28.90;35.50;;;;;;5021608;28;20546;-91
2021/07/07 12:11:18;;;;;;;2.27;2.17;;;30.00;38.20;;;;;;5004517;28;20931;-93
2021/07/07 12:13:46;;;;;;;1.93;1.83;;;28.60;39.10;;;;;;5004274;28;20470;-92
2021/07/07 12:16:20;;;;;;;1.80;1.80;;;28.90;37.60;;;;;;5002671;28;20551;-90
2021/07/07 12:18:51;;;;;;;3.07;1.90;;;29.20;36.80;;;;;;5021881;28;20832;-91
2021/07/07 12:21:22;;;;;;;2.20;2.10;;;29.00;37.30;;;;;;5020498;28;20438;-92
2021/07/07 12:23:57;;;;;;;2.70;2.60;;;29.40;38.80;;;;;;5021143;28;20408;-93
2021/07/07 12:26:29;;;;;;;2.20;1.73;;;28.10;36.70;;;;;;5022592;28;20403;-93
2021/07/07 12:29:00;;;;;;;2.10;2.00;;;28.70;36.70;;;;;;5024916;28;20416;-90
2021/07/07 12:31:47;;;;;;;2.60;2.20;;;30.30;36.10;;;;;;5024718;28;20430;-88
2021/07/07 12:34:16;;;;;;;3.43;2.30;;;31.40;33.70;;;;;;5007789;28;20515;-92
2021/07/07 12:36:44;;;;;;;3.17;2.50;;;32.40;33.20;;;;;;4988340;28;20411;-93
2021/07/07 12:39:21;;;;;;;2.40;2.20;;;30.50;34.50;;;;;;5005250;28;20915;-92
2021/07/07 12:41:54;;;;;;;2.33;2.33;;;29.70;34.40;;;;;;5003970;28;20407;-91
2021/07/07 12:44:28;;;;;;;2.60;2.50;;;28.90;36.30;;;;;;5021360;28;20438;-92
2021/07/07 12:47:04;;;;;;;2.80;2.60;;;28.40;35.80;;;;;;4998308;28;20468;-89
2021/07/07 12:49:41;;;;;;;2.70;2.50;;;28.30;38.30;;;;;;4998343;28;20957;-91
2021/07/07 12:52:19;;;;;;;6.03;2.30;;;30.90;39.80;;;;;;5003109;28;20765;-94
2021/07/07 12:54:59;;;;;;;2.23;2.13;;;27.80;37.90;;;;;;5023849;28;20478;-91
2021/07/07 12:57:47;;;;;;;3.13;2.70;;;28.60;40.40;;;;;;5025887;28;20419;-92
2021/07/07 13:00:36;;;;;;;2.10;2.00;;;27.40;39.60;;;;;;5003456;28;20427;-93
2021/07/07 13:03:06;;;;;;;3.20;2.60;;;25.90;39.00;;;;;;4994195;28;20427;-90
2021/07/07 13:05:43;;;;;;;2.77;2.57;;;26.00;39.60;;;;;;4988892;28;20456;-91
2021/07/07 13:08:15;;;;;;;2.20;2.20;;;25.80;41.00;;;;;;4982203;28;20468;-92